createdAt,value
2022-08-25T00:00:02.308Z,20.70
2022-08-25T00:03:06.505Z,20.70
2022-08-25T00:06:11.043Z,20.60
2022-08-25T00:09:15.898Z,20.60
2022-08-25T00:12:18.857Z,20.60
2022-08-25T00:15:23.658Z,20.50
2022-08-25T00:18:26.629Z,20.60
2022-08-25T00:21:31.541Z,20.50
2022-08-25T00:24:34.559Z,20.40
2022-08-25T00:27:37.872Z,20.40
2022-08-25T00:30:42.243Z,20.40
2022-08-25T00:33:46.083Z,20.40
2022-08-25T00:36:50.765Z,20.40
2022-08-25T00:39:55.112Z,20.30
2022-08-25T00:42:57.953Z,20.30
2022-08-25T00:46:02.992Z,20.30
2022-08-25T00:49:14.695Z,20.20
2022-08-25T00:52:34.743Z,20.20
2022-08-25T00:55:41.657Z,20.20
2022-08-25T00:58:45.028Z,20.20
2022-08-25T01:01:55.253Z,20.20
2022-08-25T01:04:58.811Z,20.20
2022-08-25T01:08:06.675Z,20.10
2022-08-25T01:11:12.437Z,20.10
2022-08-25T01:14:18.099Z,20.10
2022-08-25T01:17:28.025Z,20.00
2022-08-25T01:20:34.692Z,20.00
2022-08-25T01:23:38.967Z,20.00
2022-08-25T01:26:41.833Z,19.90
2022-08-25T01:29:44.686Z,19.90
2022-08-25T01:32:47.549Z,19.90
2022-08-25T01:35:50.503Z,19.90
2022-08-25T01:38:55.321Z,19.90
2022-08-25T01:42:30.068Z,19.90
2022-08-25T01:45:33.149Z,19.80
2022-08-25T01:48:36.815Z,19.80
2022-08-25T01:51:45.243Z,19.80
2022-08-25T01:54:53.232Z,19.70
2022-08-25T01:57:56.797Z,19.70
2022-08-25T02:01:11.703Z,19.70
2022-08-25T02:04:14.589Z,19.60
2022-08-25T02:07:22.685Z,19.60
2022-08-25T02:10:26.910Z,19.60
2022-08-25T02:13:31.517Z,19.60
2022-08-25T02:16:38.324Z,19.60
2022-08-25T02:19:41.418Z,19.60
2022-08-25T02:22:45.005Z,19.60
2022-08-25T02:25:58.186Z,19.50
2022-08-25T02:29:01.548Z,19.50
2022-08-25T02:32:05.027Z,19.50
2022-08-25T02:35:09.823Z,19.50
2022-08-25T02:38:12.700Z,19.50
2022-08-25T02:41:20.966Z,19.50
2022-08-25T02:44:23.880Z,19.40
2022-08-25T02:47:27.020Z,19.40
2022-08-25T02:50:32.160Z,19.40
2022-08-25T02:53:35.930Z,19.40
2022-08-25T02:56:42.604Z,19.30
2022-08-25T02:59:48.478Z,19.30
2022-08-25T03:02:54.164Z,19.30
2022-08-25T03:05:57.375Z,19.30
2022-08-25T03:09:01.361Z,19.30
2022-08-25T03:12:06.514Z,19.30
2022-08-25T03:15:12.830Z,19.30
2022-08-25T03:18:16.492Z,19.30
2022-08-25T03:21:21.142Z,19.30
2022-08-25T03:24:24.086Z,19.30
2022-08-25T03:27:30.396Z,19.30
2022-08-25T03:30:33.311Z,19.20
2022-08-25T03:33:38.410Z,19.20
2022-08-25T03:36:41.754Z,19.10
2022-08-25T03:39:46.451Z,19.10
2022-08-25T03:42:51.120Z,19.10
2022-08-25T03:45:54.269Z,19.10
2022-08-25T03:48:58.164Z,19.10
2022-08-25T03:52:02.077Z,19.10
2022-08-25T03:55:14.503Z,19.10
2022-08-25T03:58:19.086Z,19.10
2022-08-25T04:01:22.136Z,19.10
2022-08-25T04:04:25.462Z,19.00
2022-08-25T04:07:28.552Z,19.00
2022-08-25T04:10:32.876Z,19.00
2022-08-25T04:13:37.882Z,19.00
2022-08-25T04:16:40.900Z,19.00
2022-08-25T04:19:43.858Z,19.00
2022-08-25T04:22:46.880Z,19.00
2022-08-25T04:25:49.710Z,19.00
2022-08-25T04:28:55.041Z,19.00
2022-08-25T04:31:57.949Z,19.00
2022-08-25T04:35:00.886Z,19.00
2022-08-25T04:38:04.329Z,19.00
2022-08-25T04:41:12.240Z,19.00
2022-08-25T04:44:19.325Z,19.10
2022-08-25T04:47:22.224Z,19.10
2022-08-25T04:50:25.532Z,19.10
2022-08-25T04:53:29.796Z,19.10
2022-08-25T04:56:33.850Z,19.10
2022-08-25T04:59:39.733Z,19.10
2022-08-25T05:02:42.565Z,19.20
2022-08-25T05:05:45.501Z,19.20
2022-08-25T05:08:48.409Z,19.20
2022-08-25T05:11:51.362Z,19.20
2022-08-25T05:14:55.667Z,19.20
2022-08-25T05:18:00.614Z,19.30
2022-08-25T05:21:05.343Z,19.30
2022-08-25T05:24:11.386Z,19.30
2022-08-25T05:27:14.230Z,19.40
2022-08-25T05:30:18.588Z,19.50
2022-08-25T05:33:30.630Z,19.40
2022-08-25T05:36:37.029Z,19.50
2022-08-25T05:39:39.942Z,19.60
2022-08-25T05:42:44.251Z,19.60
2022-08-25T05:45:48.557Z,19.60
2022-08-25T05:48:51.701Z,19.60
2022-08-25T05:51:54.664Z,19.70
2022-08-25T05:54:57.542Z,19.70
2022-08-25T05:58:02.300Z,19.70
2022-08-25T06:01:21.367Z,19.80
2022-08-25T06:04:24.437Z,19.90
2022-08-25T06:07:27.232Z,20.00
2022-08-25T06:10:30.430Z,20.10
2022-08-25T06:13:33.295Z,20.10
2022-08-25T06:16:38.577Z,20.10
2022-08-25T06:19:41.602Z,20.20
2022-08-25T06:22:44.564Z,20.30
2022-08-25T06:25:50.853Z,20.30
2022-08-25T06:28:54.162Z,20.40
2022-08-25T06:31:58.482Z,20.40
2022-08-25T06:35:03.629Z,20.40
2022-08-25T06:38:06.594Z,20.40
2022-08-25T06:41:12.421Z,20.50
2022-08-25T06:44:15.318Z,20.50
2022-08-25T06:47:20.563Z,20.40
2022-08-25T06:50:24.769Z,20.60
2022-08-25T06:53:28.390Z,20.60
2022-08-25T06:56:31.352Z,20.60
2022-08-25T06:59:34.667Z,20.70
2022-08-25T07:02:39.416Z,20.90
2022-08-25T07:05:43.845Z,20.90
2022-08-25T07:08:47.493Z,20.90
2022-08-25T07:11:50.312Z,21.00
2022-08-25T07:15:10.113Z,21.10
2022-08-25T07:18:17.415Z,21.10
2022-08-25T07:21:24.782Z,21.30
2022-08-25T07:24:31.771Z,21.50
2022-08-25T07:27:34.598Z,21.60
2022-08-25T07:30:37.448Z,21.70
2022-08-25T07:34:04.705Z,21.80
2022-08-25T07:37:17.346Z,21.80
2022-08-25T07:40:29.624Z,21.90
2022-08-25T07:43:32.943Z,21.90
2022-08-25T07:46:37.121Z,22.00
2022-08-25T07:49:41.884Z,22.20
2022-08-25T07:52:44.693Z,22.30
2022-08-25T07:55:58.561Z,22.50
2022-08-25T07:59:01.440Z,22.50
2022-08-25T08:02:04.401Z,22.70
2022-08-25T08:05:11.509Z,22.70
2022-08-25T08:08:14.742Z,22.80
2022-08-25T08:11:18.253Z,22.90
2022-08-25T08:14:21.788Z,23.00
2022-08-25T08:17:24.643Z,23.10
2022-08-25T08:20:31.382Z,23.20
2022-08-25T08:23:49.343Z,23.40
2022-08-25T08:26:59.135Z,23.60
2022-08-25T08:30:02.546Z,23.70
2022-08-25T08:33:10.041Z,23.70
2022-08-25T08:36:16.226Z,23.90
2022-08-25T08:39:19.426Z,24.00
2022-08-25T08:42:51.832Z,24.30
2022-08-25T08:45:54.789Z,24.40
2022-08-25T08:49:02.948Z,24.70
2022-08-25T08:52:20.554Z,24.90
2022-08-25T08:55:31.297Z,24.90
2022-08-25T08:58:43.021Z,25.10
2022-08-25T09:01:54.057Z,25.00
2022-08-25T09:05:02.416Z,24.90
2022-08-25T09:08:12.403Z,24.90
2022-08-25T09:11:27.772Z,24.80
2022-08-25T09:14:43.904Z,24.60
2022-08-25T09:18:14.036Z,24.60
2022-08-25T09:21:26.838Z,24.80
2022-08-25T09:24:41.329Z,24.80
2022-08-25T09:27:55.605Z,24.70
2022-08-25T09:31:01.635Z,24.90
2022-08-25T09:34:08.171Z,25.10
2022-08-25T09:37:11.173Z,25.00
2022-08-25T09:40:16.216Z,24.90
2022-08-25T09:43:24.568Z,24.80
2022-08-25T09:46:29.443Z,24.70
2022-08-25T09:49:36.224Z,24.80
2022-08-25T09:52:41.778Z,24.90
2022-08-25T09:55:48.380Z,25.10
2022-08-25T09:58:51.995Z,25.30
2022-08-25T10:01:57.974Z,25.50
2022-08-25T10:05:17.654Z,25.70
2022-08-25T10:08:31.448Z,25.80
2022-08-25T10:11:57.633Z,25.90
2022-08-25T10:15:00.970Z,25.80
2022-08-25T10:18:23.459Z,25.70
2022-08-25T10:21:29.082Z,25.60
2022-08-25T10:24:32.662Z,25.70
2022-08-25T10:27:46.338Z,25.80
2022-08-25T10:31:04.342Z,25.70
2022-08-25T10:34:31.215Z,25.70
2022-08-25T10:37:48.565Z,25.60
2022-08-25T10:40:57.774Z,25.80
2022-08-25T10:44:33.560Z,25.80
2022-08-25T10:47:52.388Z,25.90
2022-08-25T10:51:01.991Z,26.30
2022-08-25T10:54:12.877Z,26.40
2022-08-25T10:57:23.722Z,26.60
2022-08-25T11:00:35.180Z,26.80
2022-08-25T11:03:50.266Z,26.90
2022-08-25T11:07:00.323Z,27.00
2022-08-25T11:10:11.700Z,27.10
2022-08-25T11:13:20.493Z,27.20
2022-08-25T11:16:35.029Z,27.20
2022-08-25T11:19:44.167Z,27.10
2022-08-25T11:22:53.966Z,27.20
2022-08-25T11:26:01.588Z,27.40
2022-08-25T11:29:11.515Z,27.60
2022-08-25T11:32:22.826Z,27.80
2022-08-25T11:35:30.760Z,27.80
2022-08-25T11:38:47.885Z,27.80
2022-08-25T11:42:05.675Z,27.90
2022-08-25T11:45:23.765Z,27.90
2022-08-25T11:48:39.920Z,27.80
2022-08-25T11:51:48.379Z,27.70
2022-08-25T11:54:52.305Z,27.80
2022-08-25T11:58:18.174Z,27.90
2022-08-25T12:02:01.507Z,27.90
2022-08-25T12:05:33.249Z,28.00
2022-08-25T12:09:16.127Z,28.10
2022-08-25T12:12:31.944Z,28.10
2022-08-25T12:15:51.322Z,28.20
2022-08-25T12:19:28.758Z,28.20
2022-08-25T12:23:00.061Z,28.40
2022-08-25T12:26:11.156Z,28.50
2022-08-25T12:29:17.909Z,28.60
2022-08-25T12:32:50.168Z,28.50
2022-08-25T12:35:58.527Z,28.60
2022-08-25T12:39:24.478Z,28.70
2022-08-25T12:42:33.522Z,28.80
2022-08-25T12:45:43.823Z,29.10
2022-08-25T12:48:58.360Z,29.20
2022-08-25T12:52:07.340Z,29.20
2022-08-25T12:55:13.358Z,29.10
2022-08-25T12:58:16.977Z,29.00
2022-08-25T13:01:35.941Z,29.00
2022-08-25T13:05:02.626Z,28.90
2022-08-25T13:08:33.793Z,28.70
2022-08-25T13:11:43.239Z,28.50
2022-08-25T13:14:54.610Z,28.40
2022-08-25T13:18:13.335Z,28.50
2022-08-25T13:21:19.850Z,28.70
2022-08-25T13:24:29.654Z,29.00
2022-08-25T13:27:36.516Z,29.40
2022-08-25T13:30:40.085Z,29.40
2022-08-25T13:33:52.212Z,29.40
2022-08-25T13:37:15.540Z,29.20
2022-08-25T13:40:26.095Z,29.00
2022-08-25T13:43:30.773Z,28.80
2022-08-25T13:46:35.022Z,28.70
2022-08-25T13:49:39.664Z,28.60
2022-08-25T13:52:42.971Z,28.60
2022-08-25T13:55:52.288Z,28.70
2022-08-25T13:58:58.507Z,28.80
2022-08-25T14:02:01.708Z,28.70
2022-08-25T14:05:05.119Z,28.70
2022-08-25T14:08:31.876Z,28.60
2022-08-25T14:11:43.508Z,28.50
2022-08-25T14:15:03.537Z,28.50
2022-08-25T14:18:09.797Z,28.60
2022-08-25T14:21:20.366Z,28.90
2022-08-25T14:24:24.752Z,29.30
2022-08-25T14:27:31.989Z,29.40
2022-08-25T14:30:45.993Z,29.40
2022-08-25T14:33:54.946Z,29.20
2022-08-25T14:36:59.889Z,29.20
2022-08-25T14:40:02.863Z,29.10
2022-08-25T14:43:09.495Z,29.10
2022-08-25T14:46:19.551Z,29.00
2022-08-25T14:49:26.996Z,29.00
2022-08-25T14:52:31.476Z,29.20
2022-08-25T14:55:34.347Z,29.40
2022-08-25T14:58:51.005Z,29.50
2022-08-25T15:02:08.137Z,29.50
2022-08-25T15:05:13.405Z,29.60
2022-08-25T15:08:34.804Z,29.60
2022-08-25T15:11:41.670Z,29.70
2022-08-25T15:14:44.777Z,29.70
2022-08-25T15:17:50.747Z,29.70
2022-08-25T15:20:53.802Z,29.70
2022-08-25T15:23:59.241Z,29.50
2022-08-25T15:27:05.618Z,29.50
2022-08-25T15:30:19.517Z,29.40
2022-08-25T15:33:23.809Z,29.30
2022-08-25T15:36:27.349Z,29.10
2022-08-25T15:39:30.309Z,29.10
2022-08-25T15:42:33.505Z,28.90
2022-08-25T15:45:37.328Z,28.90
2022-08-25T15:48:42.297Z,28.90
2022-08-25T15:51:45.834Z,28.90
2022-08-25T15:54:51.225Z,28.90
2022-08-25T15:57:54.173Z,28.70
2022-08-25T16:01:00.916Z,28.60
2022-08-25T16:04:05.402Z,28.50
2022-08-25T16:07:08.762Z,28.40
2022-08-25T16:10:16.506Z,28.30
2022-08-25T16:13:19.389Z,28.20
2022-08-25T16:16:23.783Z,28.10
2022-08-25T16:19:38.226Z,27.90
2022-08-25T16:22:43.440Z,27.90
2022-08-25T16:25:48.286Z,27.80
2022-08-25T16:28:51.547Z,27.70
2022-08-25T16:31:55.160Z,27.70
2022-08-25T16:35:01.157Z,27.70
2022-08-25T16:38:04.604Z,27.70
2022-08-25T16:41:08.895Z,27.60
2022-08-25T16:44:11.990Z,27.60
2022-08-25T16:47:17.775Z,27.60
2022-08-25T16:50:24.768Z,27.50
2022-08-25T16:53:45.980Z,27.50
2022-08-25T16:56:54.645Z,27.40
2022-08-25T16:59:57.853Z,27.30
2022-08-25T17:03:04.889Z,27.30
2022-08-25T17:06:09.604Z,27.20
2022-08-25T17:09:17.388Z,27.00
2022-08-25T17:12:26.008Z,27.00
2022-08-25T17:15:28.819Z,26.90
2022-08-25T17:18:32.221Z,26.80
2022-08-25T17:21:40.400Z,26.70
2022-08-25T17:24:59.241Z,26.70
2022-08-25T17:28:05.033Z,26.70
2022-08-25T17:31:08.642Z,26.60
2022-08-25T17:34:16.507Z,26.60
2022-08-25T17:37:21.208Z,26.50
2022-08-25T17:40:24.919Z,26.40
2022-08-25T17:43:31.568Z,26.40
2022-08-25T17:46:34.592Z,26.30
2022-08-25T17:49:37.465Z,26.20
2022-08-25T17:52:41.809Z,26.20
2022-08-25T17:55:45.930Z,26.10
2022-08-25T17:58:50.034Z,26.00
2022-08-25T18:01:55.587Z,25.90
2022-08-25T18:05:00.448Z,25.90
2022-08-25T18:08:05.580Z,25.80
2022-08-25T18:11:14.368Z,25.70
2022-08-25T18:14:25.210Z,25.70
2022-08-25T18:17:29.127Z,25.60
2022-08-25T18:20:32.234Z,25.50
2022-08-25T18:23:36.485Z,25.50
2022-08-25T18:26:40.820Z,25.50
2022-08-25T18:30:03.267Z,25.40
2022-08-25T18:33:06.360Z,25.30
2022-08-25T18:36:09.241Z,25.30
2022-08-25T18:39:34.529Z,25.10
2022-08-25T18:42:38.471Z,25.10
2022-08-25T18:45:43.789Z,25.00
2022-08-25T18:48:47.450Z,24.90
2022-08-25T18:51:50.872Z,24.90
2022-08-25T18:54:55.073Z,24.80
2022-08-25T18:57:58.883Z,24.70
2022-08-25T19:01:01.986Z,24.70
2022-08-25T19:04:05.737Z,24.60
2022-08-25T19:07:09.929Z,24.60
2022-08-25T19:10:14.165Z,24.50
2022-08-25T19:13:17.573Z,24.50
2022-08-25T19:16:34.561Z,24.40
2022-08-25T19:19:37.429Z,24.30
2022-08-25T19:22:42.069Z,24.30
2022-08-25T19:25:47.059Z,24.30
2022-08-25T19:28:52.650Z,24.30
2022-08-25T19:31:57.255Z,24.20
2022-08-25T19:35:04.352Z,24.20
2022-08-25T19:38:33.549Z,24.10
2022-08-25T19:41:34.585Z,24.00
2022-08-25T19:44:39.062Z,24.00
2022-08-25T19:47:44.687Z,23.90
2022-08-25T19:50:47.692Z,23.90
2022-08-25T19:54:01.555Z,23.80
2022-08-25T19:57:11.134Z,23.70
2022-08-25T20:00:18.861Z,23.70
2022-08-25T20:03:22.189Z,23.70
2022-08-25T20:06:27.749Z,23.60
2022-08-25T20:09:38.951Z,23.50
2022-08-25T20:12:45.415Z,23.50
2022-08-25T20:15:48.417Z,23.50
2022-08-25T20:18:53.836Z,23.40
2022-08-25T20:21:57.632Z,23.30
2022-08-25T20:25:03.331Z,23.30
2022-08-25T20:28:24.942Z,23.20
2022-08-25T20:31:27.871Z,23.20
2022-08-25T20:34:32.564Z,23.10
2022-08-25T20:37:36.756Z,23.10
2022-08-25T20:40:42.093Z,23.00
2022-08-25T20:43:49.280Z,23.00
2022-08-25T20:46:52.176Z,22.90
2022-08-25T20:50:02.259Z,22.90
2022-08-25T20:53:10.158Z,22.90
2022-08-25T20:56:18.091Z,22.80
2022-08-25T20:59:22.608Z,22.80
2022-08-25T21:02:26.635Z,22.80
2022-08-25T21:05:29.596Z,22.70
2022-08-25T21:08:46.694Z,22.70
2022-08-25T21:11:51.297Z,22.70
2022-08-25T21:14:55.973Z,22.70
2022-08-25T21:18:00.061Z,22.60
2022-08-25T21:21:11.190Z,22.60
2022-08-25T21:24:24.059Z,22.60
2022-08-25T21:27:26.961Z,22.60
2022-08-25T21:30:32.996Z,22.50
2022-08-25T21:33:38.070Z,22.50
2022-08-25T21:36:42.220Z,22.50
2022-08-25T21:39:45.068Z,22.50
2022-08-25T21:42:48.362Z,22.40
2022-08-25T21:45:53.698Z,22.40
2022-08-25T21:49:06.522Z,22.40
2022-08-25T21:52:11.774Z,22.40
2022-08-25T21:55:16.257Z,22.40
2022-08-25T21:58:19.959Z,22.40
2022-08-25T22:01:24.241Z,22.30
2022-08-25T22:04:28.165Z,22.30
2022-08-25T22:07:34.263Z,22.30
2022-08-25T22:10:44.369Z,22.30
2022-08-25T22:13:48.627Z,22.30
2022-08-25T22:16:55.200Z,22.30
2022-08-25T22:19:58.217Z,22.20
2022-08-25T22:23:01.162Z,22.20
2022-08-25T22:26:04.678Z,22.20
2022-08-25T22:29:07.609Z,22.20
2022-08-25T22:32:13.483Z,22.30
2022-08-25T22:35:18.486Z,22.30
2022-08-25T22:38:22.767Z,22.40
2022-08-25T22:41:28.896Z,22.40
2022-08-25T22:44:32.199Z,22.40
2022-08-25T22:47:36.493Z,22.40
2022-08-25T22:50:40.252Z,22.40
2022-08-25T22:53:45.182Z,22.40
2022-08-25T22:56:54.494Z,22.40
2022-08-25T22:59:59.235Z,22.40
2022-08-25T23:03:03.485Z,22.50
2022-08-25T23:06:14.429Z,22.50
2022-08-25T23:09:17.615Z,22.50
2022-08-25T23:12:20.794Z,22.50
2022-08-25T23:15:25.348Z,22.50
2022-08-25T23:18:44.675Z,22.50
2022-08-25T23:22:05.056Z,22.60
2022-08-25T23:25:09.469Z,22.60
2022-08-25T23:28:13.459Z,22.60
2022-08-25T23:31:17.812Z,22.50
2022-08-25T23:34:28.720Z,22.50
2022-08-25T23:37:31.708Z,22.50
2022-08-25T23:40:34.964Z,22.50
2022-08-25T23:43:38.806Z,22.50
2022-08-25T23:46:44.439Z,22.50
2022-08-25T23:49:49.099Z,22.40
2022-08-25T23:52:52.091Z,22.40
2022-08-25T23:55:55.615Z,22.30
2022-08-25T23:58:58.534Z,22.20
